createdAt,value
2019-02-14T00:06:49.008Z,1.73
2019-02-14T00:09:17.433Z,1.77
2019-02-14T00:11:45.837Z,1.83
2019-02-14T00:14:14.235Z,1.87
2019-02-14T00:16:42.660Z,1.89
2019-02-14T00:19:11.048Z,1.90
2019-02-14T00:24:26.915Z,1.90
2019-02-14T00:26:55.311Z,1.87
2019-02-14T00:29:23.705Z,1.81
2019-02-14T00:31:52.137Z,1.75
2019-02-14T00:34:20.533Z,1.71
2019-02-14T00:36:48.933Z,1.68
2019-02-14T00:39:17.389Z,1.68
2019-02-14T00:41:45.790Z,1.70
2019-02-14T00:44:14.194Z,1.72
2019-02-14T00:49:16.266Z,1.79
2019-02-14T00:51:44.698Z,1.81
2019-02-14T00:54:32.287Z,1.84
2019-02-14T00:57:00.716Z,1.87
2019-02-14T00:59:29.112Z,1.87
2019-02-14T01:01:57.579Z,1.88
2019-02-14T01:07:00.304Z,1.85
2019-02-14T01:09:28.735Z,1.84
2019-02-14T01:11:57.133Z,1.81
2019-02-14T01:14:25.528Z,1.72
2019-02-14T01:17:13.466Z,1.58
2019-02-14T01:19:41.860Z,1.43
2019-02-14T01:22:22.494Z,1.32
2019-02-14T01:24:50.891Z,1.20
2019-02-14T01:27:19.286Z,1.13
2019-02-14T01:29:47.716Z,1.12
2019-02-14T01:32:35.521Z,1.11
2019-02-14T01:35:43.854Z,1.14
2019-02-14T01:38:12.256Z,1.23
2019-02-14T01:40:40.651Z,1.31
2019-02-14T01:45:42.548Z,1.45
2019-02-14T01:48:10.946Z,1.52
2019-02-14T01:50:39.372Z,1.60
2019-02-14T01:53:07.772Z,1.67
2019-02-14T01:55:55.678Z,1.71
2019-02-14T01:58:24.065Z,1.75
2019-02-14T02:00:52.570Z,1.77
2019-02-14T02:03:20.994Z,1.79
2019-02-14T02:06:08.586Z,1.80
2019-02-14T02:08:37.002Z,1.75
2019-02-14T02:11:45.313Z,1.74
2019-02-14T02:16:47.607Z,1.71
2019-02-14T02:22:10.728Z,1.56
2019-02-14T02:24:39.118Z,1.48
2019-02-14T02:27:07.522Z,1.36
2019-02-14T02:32:10.292Z,1.12
2019-02-14T02:34:38.725Z,1.15
2019-02-14T02:37:26.368Z,1.20
2019-02-14T02:42:48.430Z,1.21
2019-02-14T02:45:36.047Z,1.09
2019-02-14T02:48:04.466Z,1.02
2019-02-14T02:50:32.860Z,0.98
2019-02-14T02:55:34.840Z,0.98
2019-02-14T02:58:03.235Z,0.91
2019-02-14T03:00:31.659Z,0.91
2019-02-14T03:03:00.060Z,0.92
2019-02-14T03:05:28.465Z,0.94
2019-02-14T03:10:31.306Z,0.92
2019-02-14T03:15:33.832Z,1.00
2019-02-14T03:18:02.237Z,1.03
2019-02-14T03:20:30.686Z,1.08
2019-02-14T03:22:59.088Z,1.08
2019-02-14T03:25:46.885Z,1.11
2019-02-14T03:28:27.765Z,1.13
2019-02-14T03:30:56.183Z,1.12
2019-02-14T03:33:27.030Z,1.20
2019-02-14T03:35:55.420Z,1.25
2019-02-14T03:38:23.869Z,1.28
2019-02-14T03:40:52.244Z,1.32
2019-02-14T03:43:20.647Z,1.35
2019-02-14T03:45:49.107Z,1.40
2019-02-14T03:48:17.501Z,1.43
2019-02-14T03:50:45.886Z,1.48
2019-02-14T03:53:14.310Z,1.53
2019-02-14T03:55:42.709Z,1.55
2019-02-14T03:58:30.639Z,1.57
2019-02-14T04:00:59.040Z,1.58
2019-02-14T04:03:27.440Z,1.57
2019-02-14T04:08:49.650Z,1.45
2019-02-14T04:11:18.063Z,1.34
2019-02-14T04:14:00.674Z,1.24
2019-02-14T04:16:16.600Z,1.18
2019-02-14T04:18:45.081Z,1.13
2019-02-14T04:21:13.483Z,1.09
2019-02-14T04:23:41.883Z,1.09
2019-02-14T04:26:10.346Z,1.10
2019-02-14T04:28:38.760Z,1.14
2019-02-14T04:31:19.349Z,1.15
2019-02-14T04:33:47.784Z,1.20
2019-02-14T04:36:16.185Z,1.21
2019-02-14T04:38:44.614Z,1.22
2019-02-14T04:41:13.016Z,1.23
2019-02-14T04:43:41.429Z,1.24
2019-02-14T04:48:44.353Z,1.30
2019-02-14T04:51:12.775Z,1.33
2019-02-14T04:53:41.167Z,1.34
2019-02-14T04:56:09.558Z,1.36
2019-02-14T04:58:38.045Z,1.36
2019-02-14T05:01:06.445Z,1.37
2019-02-14T05:03:34.824Z,1.38
2019-02-14T05:08:37.206Z,1.31
2019-02-14T05:13:39.489Z,1.29
2019-02-14T05:18:42.231Z,1.34
2019-02-14T05:23:44.572Z,1.36
2019-02-14T05:28:46.978Z,1.35
2019-02-14T05:31:16.954Z,1.34
2019-02-14T05:33:57.054Z,1.32
2019-02-14T05:36:25.478Z,1.34
2019-02-14T05:38:53.870Z,1.40
2019-02-14T05:41:22.256Z,1.44
2019-02-14T05:43:50.682Z,1.48
2019-02-14T05:46:19.077Z,1.51
2019-02-14T05:48:47.463Z,1.54
2019-02-14T05:53:50.290Z,1.64
2019-02-14T05:58:52.678Z,1.74
2019-02-14T06:04:08.519Z,1.74
2019-02-14T06:06:36.922Z,1.74
2019-02-14T06:09:45.355Z,1.73
2019-02-14T06:12:13.747Z,1.70
2019-02-14T06:14:42.162Z,1.69
2019-02-14T06:17:10.597Z,1.68
2019-02-14T06:19:39.034Z,1.69
2019-02-14T06:22:07.428Z,1.70
2019-02-14T06:24:35.854Z,1.73
2019-02-14T06:27:04.254Z,1.76
2019-02-14T06:29:32.771Z,1.78
2019-02-14T06:34:34.856Z,1.77
2019-02-14T06:37:09.459Z,1.80
2019-02-14T06:39:33.384Z,1.80
2019-02-14T06:42:01.779Z,1.79
2019-02-14T06:44:30.163Z,1.75
2019-02-14T06:54:45.412Z,1.68
2019-02-14T06:57:13.856Z,1.71
2019-02-14T07:05:53.214Z,1.66
2019-02-14T07:10:55.722Z,1.65
2019-02-14T07:15:58.521Z,1.69
2019-02-14T07:18:26.937Z,1.75
2019-02-14T07:20:55.405Z,1.83
2019-02-14T07:23:23.790Z,1.92
2019-02-14T07:25:52.202Z,1.99
2019-02-14T07:28:20.610Z,2.06
2019-02-14T07:30:49.005Z,2.14
2019-02-14T07:33:17.433Z,2.24
2019-02-14T07:35:45.848Z,2.32
2019-02-14T07:38:14.255Z,2.43
2019-02-14T07:40:42.764Z,2.51
2019-02-14T07:43:11.163Z,2.60
2019-02-14T07:45:41.360Z,2.67
2019-02-14T07:48:09.866Z,2.75
2019-02-14T07:50:38.258Z,2.88
2019-02-14T07:53:06.662Z,2.93
2019-02-14T07:55:35.182Z,2.94
2019-02-14T07:58:03.586Z,2.95
2019-02-14T08:00:32.059Z,2.97
2019-02-14T08:03:00.609Z,2.99
2019-02-14T08:05:29.074Z,3.00
2019-02-14T08:07:57.554Z,3.02
2019-02-14T08:10:26.008Z,3.06
2019-02-14T08:12:54.404Z,3.13
2019-02-14T08:15:22.802Z,3.18
2019-02-14T08:17:51.426Z,3.25
2019-02-14T08:20:20.949Z,3.27
2019-02-14T08:22:49.348Z,3.28
2019-02-14T08:25:18.029Z,3.31
2019-02-14T08:27:46.435Z,3.40
2019-02-14T08:30:16.818Z,3.51
2019-02-14T08:32:45.697Z,3.63
2019-02-14T08:35:14.247Z,3.79
2019-02-14T08:37:45.664Z,3.93
2019-02-14T08:40:19.112Z,4.06
2019-02-14T08:42:47.503Z,4.22
2019-02-14T08:45:15.906Z,4.34
2019-02-14T08:47:44.319Z,4.41
2019-02-14T08:50:12.788Z,4.51
2019-02-14T08:52:41.182Z,4.58
2019-02-14T08:55:10.617Z,4.62
2019-02-14T08:57:39.079Z,4.65
2019-02-14T09:00:12.796Z,4.73
2019-02-14T09:02:41.333Z,4.78
2019-02-14T09:05:10.396Z,4.84
2019-02-14T09:07:38.797Z,4.89
2019-02-14T09:10:10.465Z,4.90
2019-02-14T09:12:38.855Z,4.89
2019-02-14T09:15:10.201Z,4.87
2019-02-14T09:17:38.708Z,4.83
2019-02-14T09:20:18.237Z,4.85
2019-02-14T09:22:47.041Z,4.89
2019-02-14T09:25:15.505Z,4.92
2019-02-14T09:27:43.894Z,4.93
2019-02-14T09:30:13.967Z,4.96
2019-02-14T09:32:42.444Z,5.04
2019-02-14T09:35:11.285Z,5.14
2019-02-14T09:37:40.087Z,5.23
2019-02-14T09:40:13.682Z,5.36
2019-02-14T09:42:42.179Z,5.46
2019-02-14T09:45:12.630Z,5.50
2019-02-14T09:47:41.116Z,5.50
2019-02-14T09:50:11.896Z,5.49
2019-02-14T09:52:41.359Z,5.54
2019-02-14T09:55:11.588Z,5.67
2019-02-14T09:57:40.063Z,5.72
2019-02-14T10:00:19.173Z,5.76
2019-02-14T10:02:47.556Z,5.76
2019-02-14T10:05:16.298Z,5.73
2019-02-14T10:07:44.888Z,5.74
2019-02-14T10:10:21.713Z,5.80
2019-02-14T10:12:50.103Z,5.85
2019-02-14T10:15:18.501Z,5.92
2019-02-14T10:17:46.893Z,6.01
2019-02-14T10:20:18.926Z,6.09
2019-02-14T10:22:47.372Z,6.24
2019-02-14T10:25:15.776Z,6.35
2019-02-14T10:27:44.512Z,6.40
2019-02-14T10:30:20.708Z,6.45
2019-02-14T10:32:49.235Z,6.50
2019-02-14T10:35:17.633Z,6.56
2019-02-14T10:37:46.026Z,6.64
2019-02-14T10:40:16.440Z,6.71
2019-02-14T10:42:44.898Z,6.80
2019-02-14T10:45:15.700Z,6.87
2019-02-14T10:47:44.161Z,6.91
2019-02-14T10:50:12.894Z,6.96
2019-02-14T10:52:41.288Z,7.07
2019-02-14T10:55:12.671Z,7.18
2019-02-14T10:57:41.069Z,7.24
2019-02-14T11:00:19.255Z,7.33
2019-02-14T11:02:47.985Z,7.41
2019-02-14T11:05:17.615Z,7.48
2019-02-14T11:07:46.201Z,7.53
2019-02-14T11:10:15.538Z,7.60
2019-02-14T11:12:44.238Z,7.67
2019-02-14T11:15:20.968Z,7.74
2019-02-14T11:17:49.533Z,7.87
2019-02-14T11:20:18.280Z,8.01
2019-02-14T11:22:48.868Z,8.13
2019-02-14T11:25:38.224Z,8.24
2019-02-14T11:28:07.083Z,8.37
2019-02-14T11:30:35.483Z,8.47
2019-02-14T11:33:03.871Z,8.56
2019-02-14T11:35:32.380Z,8.65
2019-02-14T11:38:00.767Z,8.77
2019-02-14T11:40:29.162Z,8.90
2019-02-14T11:42:57.592Z,9.02
2019-02-14T11:45:26.429Z,9.14
2019-02-14T11:47:54.828Z,9.26
2019-02-14T11:50:23.248Z,9.32
2019-02-14T11:52:51.639Z,9.40
2019-02-14T11:55:20.175Z,9.47
2019-02-14T11:57:48.670Z,9.53
2019-02-14T12:00:24.624Z,9.60
2019-02-14T12:02:56.058Z,9.69
2019-02-14T12:05:23.341Z,9.79
2019-02-14T12:07:51.759Z,9.89
2019-02-14T12:10:20.193Z,10.04
2019-02-14T12:12:48.595Z,10.14
2019-02-14T12:15:16.993Z,10.22
2019-02-14T12:17:45.560Z,10.28
2019-02-14T12:20:16.910Z,10.30
2019-02-14T12:22:47.208Z,10.32
2019-02-14T12:25:24.042Z,10.37
2019-02-14T12:27:52.451Z,10.41
2019-02-14T12:30:20.919Z,10.44
2019-02-14T12:32:49.445Z,10.50
2019-02-14T12:35:17.847Z,10.53
2019-02-14T12:37:46.261Z,10.58
2019-02-14T12:40:15.027Z,10.66
2019-02-14T12:42:43.429Z,10.73
2019-02-14T12:45:20.498Z,10.80
2019-02-14T12:47:50.271Z,10.80
2019-02-14T12:50:18.676Z,10.76
2019-02-14T12:52:47.091Z,10.74
2019-02-14T12:55:15.489Z,10.80
2019-02-14T12:57:43.889Z,10.89
2019-02-14T13:00:23.447Z,10.97
2019-02-14T13:02:51.852Z,11.01
2019-02-14T13:05:20.253Z,11.02
2019-02-14T13:07:48.685Z,10.99
2019-02-14T13:10:18.322Z,11.03
2019-02-14T13:12:46.725Z,11.07
2019-02-14T13:15:26.128Z,11.10
2019-02-14T13:17:54.528Z,11.16
2019-02-14T13:20:22.998Z,11.18
2019-02-14T13:22:51.528Z,11.22
2019-02-14T13:25:19.938Z,11.25
2019-02-14T13:27:48.341Z,11.31
2019-02-14T13:30:19.647Z,11.42
2019-02-14T13:32:48.045Z,11.46
2019-02-14T13:35:16.444Z,11.49
2019-02-14T13:37:44.937Z,11.51
2019-02-14T13:40:13.474Z,11.56
2019-02-14T13:42:41.864Z,11.62
2019-02-14T13:45:16.144Z,11.67
2019-02-14T13:47:44.546Z,11.67
2019-02-14T13:50:15.742Z,11.71
2019-02-14T13:52:43.535Z,11.77
2019-02-14T13:55:12.011Z,11.86
2019-02-14T13:57:40.669Z,11.93
2019-02-14T14:00:22.370Z,11.96
2019-02-14T14:02:50.815Z,12.03
2019-02-14T14:05:19.308Z,12.10
2019-02-14T14:07:47.832Z,12.17
2019-02-14T14:10:16.241Z,12.25
2019-02-14T14:12:44.644Z,12.31
2019-02-14T14:15:13.621Z,12.37
2019-02-14T14:17:42.022Z,12.40
2019-02-14T14:20:10.624Z,12.40
2019-02-14T14:22:39.432Z,12.37
2019-02-14T14:25:12.527Z,12.35
2019-02-14T14:27:40.926Z,12.34
2019-02-14T14:30:11.948Z,12.35
2019-02-14T14:32:40.432Z,12.41
2019-02-14T14:35:11.043Z,12.43
2019-02-14T14:37:39.824Z,12.47
2019-02-14T14:40:15.789Z,12.55
2019-02-14T14:42:51.658Z,12.69
2019-02-14T14:45:37.893Z,12.83
2019-02-14T14:48:07.155Z,12.98
2019-02-14T14:50:35.556Z,13.14
2019-02-14T14:53:03.953Z,13.25
2019-02-14T14:55:32.378Z,13.35
2019-02-14T14:58:00.774Z,13.43
2019-02-14T15:00:29.193Z,13.45
2019-02-14T15:02:57.886Z,13.45
2019-02-14T15:05:26.341Z,13.44
2019-02-14T15:07:54.741Z,13.38
2019-02-14T15:10:23.175Z,13.20
2019-02-14T15:12:51.572Z,12.93
2019-02-14T15:15:19.969Z,12.67
2019-02-14T15:17:48.737Z,12.44
2019-02-14T15:20:17.135Z,12.26
2019-02-14T15:22:45.542Z,12.10
2019-02-14T15:25:14.164Z,11.97
2019-02-14T15:27:42.570Z,11.86
2019-02-14T15:30:10.975Z,11.72
2019-02-14T15:32:39.415Z,11.55
2019-02-14T15:35:08.949Z,11.43
2019-02-14T15:37:37.349Z,11.37
2019-02-14T15:40:09.466Z,11.31
2019-02-14T15:42:38.329Z,11.24
2019-02-14T15:45:07.841Z,11.17
2019-02-14T15:47:36.522Z,11.12
2019-02-14T15:50:08.871Z,11.06
2019-02-14T15:52:37.531Z,11.01
2019-02-14T15:55:07.394Z,10.95
2019-02-14T15:57:35.792Z,10.86
2019-02-14T16:00:09.639Z,10.79
2019-02-14T16:02:36.485Z,10.72
2019-02-14T16:05:06.014Z,10.62
2019-02-14T16:07:34.423Z,10.52
2019-02-14T16:10:03.780Z,10.43
2019-02-14T16:12:33.144Z,10.32
2019-02-14T16:15:01.551Z,10.22
2019-02-14T16:17:30.009Z,10.12
2019-02-14T16:19:59.742Z,10.04
2019-02-14T16:22:30.136Z,9.93
2019-02-14T16:24:58.364Z,9.80
2019-02-14T16:27:26.987Z,9.70
2019-02-14T16:29:55.409Z,9.56
2019-02-14T16:32:23.880Z,9.42
2019-02-14T16:34:52.280Z,9.21
2019-02-14T16:37:20.676Z,9.02
2019-02-14T16:39:51.894Z,8.87
2019-02-14T16:42:19.228Z,8.74
2019-02-14T16:44:47.620Z,8.61
2019-02-14T16:47:16.134Z,8.50
2019-02-14T16:49:44.528Z,8.41
2019-02-14T16:52:12.923Z,8.29
2019-02-14T16:54:41.711Z,8.17
2019-02-14T16:57:10.181Z,8.04
2019-02-14T16:59:38.605Z,7.97
2019-02-14T17:02:07.142Z,7.88
2019-02-14T17:04:35.532Z,7.84
2019-02-14T17:07:03.933Z,7.79
2019-02-14T17:09:32.380Z,7.71
2019-02-14T17:12:00.793Z,7.57
2019-02-14T17:14:29.260Z,7.47
2019-02-14T17:16:58.115Z,7.40
2019-02-14T17:19:28.225Z,7.33
2019-02-14T17:21:56.634Z,7.25
2019-02-14T17:24:25.257Z,7.21
2019-02-14T17:26:53.650Z,7.19
2019-02-14T17:29:22.048Z,7.17
2019-02-14T17:31:50.685Z,7.13
2019-02-14T17:34:19.058Z,7.05
2019-02-14T17:36:47.449Z,6.99
2019-02-14T17:39:15.977Z,6.92
2019-02-14T17:41:44.385Z,6.86
2019-02-14T17:44:12.780Z,6.81
2019-02-14T17:46:41.259Z,6.76
2019-02-14T17:49:09.689Z,6.69
2019-02-14T17:51:38.088Z,6.64
2019-02-14T17:54:06.552Z,6.57
2019-02-14T17:56:34.943Z,6.51
2019-02-14T17:59:03.335Z,6.47
2019-02-14T18:01:31.998Z,6.44
2019-02-14T18:04:00.400Z,6.40
2019-02-14T18:06:28.799Z,6.37
2019-02-14T18:08:57.222Z,6.33
2019-02-14T18:11:25.617Z,6.29
2019-02-14T18:13:54.029Z,6.27
2019-02-14T18:16:22.455Z,6.21
2019-02-14T18:18:50.853Z,6.16
2019-02-14T18:21:19.247Z,6.10
2019-02-14T18:23:48.023Z,6.06
2019-02-14T18:26:16.425Z,6.02
2019-02-14T18:28:44.834Z,5.99
2019-02-14T18:31:13.360Z,5.97
2019-02-14T18:33:41.763Z,5.86
2019-02-14T18:36:10.161Z,5.76
2019-02-14T18:38:38.811Z,5.72
2019-02-14T18:41:07.203Z,5.75
2019-02-14T18:43:35.598Z,5.72
2019-02-14T18:46:04.146Z,5.65
2019-02-14T18:48:32.581Z,5.60
2019-02-14T18:51:00.982Z,5.57
2019-02-14T18:53:29.411Z,5.53
2019-02-14T18:55:57.823Z,5.49
2019-02-14T18:58:26.823Z,5.49
2019-02-14T19:00:55.439Z,5.43
2019-02-14T19:03:23.841Z,5.37
2019-02-14T19:05:52.259Z,5.32
2019-02-14T19:08:20.712Z,5.31
2019-02-14T19:10:49.135Z,5.28
2019-02-14T19:13:18.893Z,5.33
2019-02-14T19:15:47.662Z,5.36
2019-02-14T19:18:16.049Z,5.37
2019-02-14T19:20:44.418Z,5.38
2019-02-14T19:23:23.522Z,5.41
2019-02-14T19:25:43.245Z,5.41
2019-02-14T19:28:11.641Z,5.37
2019-02-14T19:30:40.169Z,5.31
2019-02-14T19:33:08.633Z,5.25
2019-02-14T19:35:37.042Z,5.18
2019-02-14T19:38:05.621Z,5.12
2019-02-14T19:40:34.030Z,5.04
2019-02-14T19:43:04.772Z,4.98
2019-02-14T19:45:36.660Z,4.99
2019-02-14T19:48:03.331Z,4.99
2019-02-14T19:50:31.731Z,5.01
2019-02-14T19:53:00.259Z,5.00
2019-02-14T19:55:28.646Z,4.97
2019-02-14T19:57:57.034Z,4.97
2019-02-14T20:00:25.622Z,5.00
2019-02-14T20:02:54.020Z,5.05
2019-02-14T20:05:22.420Z,5.05
2019-02-14T20:07:51.330Z,5.01
2019-02-14T20:10:19.776Z,4.98
2019-02-14T20:12:48.241Z,4.95
2019-02-14T20:15:20.618Z,4.90
2019-02-14T20:17:49.010Z,4.87
2019-02-14T20:20:17.419Z,4.84
2019-02-14T20:22:46.056Z,4.81
2019-02-14T20:25:23.381Z,4.78
2019-02-14T20:27:51.814Z,4.74
2019-02-14T20:30:20.220Z,4.71
2019-02-14T20:32:48.608Z,4.69
2019-02-14T20:35:17.166Z,4.66
2019-02-14T20:37:47.108Z,4.62
2019-02-14T20:40:15.564Z,4.57
2019-02-14T20:42:43.990Z,4.53
2019-02-14T20:45:14.028Z,4.46
2019-02-14T20:47:42.443Z,4.40
2019-02-14T20:50:12.879Z,4.33
2019-02-14T20:52:41.506Z,4.29
2019-02-14T20:55:18.719Z,4.25
2019-02-14T20:57:47.202Z,4.21
2019-02-14T21:00:27.263Z,4.20
2019-02-14T21:02:55.702Z,4.19
2019-02-14T21:05:24.069Z,4.13
2019-02-14T21:07:52.480Z,4.14
2019-02-14T21:10:20.925Z,4.17
2019-02-14T21:12:49.341Z,4.16
2019-02-14T21:15:17.830Z,4.13
2019-02-14T21:17:46.233Z,4.09
2019-02-14T21:20:15.874Z,4.01
2019-02-14T21:22:44.623Z,3.96
2019-02-14T21:25:13.377Z,3.93
2019-02-14T21:27:41.750Z,3.91
2019-02-14T21:30:18.501Z,3.91
2019-02-14T21:32:47.134Z,3.92
2019-02-14T21:35:15.721Z,3.95
2019-02-14T21:37:44.277Z,3.99
2019-02-14T21:40:14.980Z,3.97
2019-02-14T21:42:43.357Z,3.96
2019-02-14T21:45:16.302Z,3.91
2019-02-14T21:47:44.710Z,3.87
2019-02-14T21:50:14.549Z,3.83
2019-02-14T21:52:43.022Z,3.80
2019-02-14T21:55:12.948Z,3.78
2019-02-14T21:57:41.499Z,3.72
2019-02-14T22:00:27.355Z,3.67
2019-02-14T22:02:55.765Z,3.65
2019-02-14T22:05:25.990Z,3.62
2019-02-14T22:07:54.457Z,3.64
2019-02-14T22:10:22.996Z,3.70
2019-02-14T22:12:51.382Z,3.72
2019-02-14T22:15:30.050Z,3.75
2019-02-14T22:17:58.419Z,3.75
2019-02-14T22:20:26.820Z,3.75
2019-02-14T22:22:55.244Z,3.75
2019-02-14T22:25:23.660Z,3.80
2019-02-14T22:27:52.707Z,3.82
2019-02-14T22:30:21.314Z,3.81
2019-02-14T22:32:49.737Z,3.79
2019-02-14T22:35:18.126Z,3.76
2019-02-14T22:37:46.546Z,3.76
2019-02-14T22:40:15.018Z,3.69
2019-02-14T22:42:47.336Z,3.59
2019-02-14T22:45:14.639Z,3.49
2019-02-14T22:47:44.669Z,3.43
2019-02-14T22:50:13.513Z,3.35
2019-02-14T22:52:42.362Z,3.27
2019-02-14T22:55:15.335Z,3.24
2019-02-14T22:57:43.873Z,3.25
2019-02-14T23:00:29.215Z,3.31
2019-02-14T23:02:57.590Z,3.38
2019-02-14T23:05:25.989Z,3.44
2019-02-14T23:07:54.417Z,3.46
2019-02-14T23:10:22.806Z,3.46
2019-02-14T23:12:55.610Z,3.46
2019-02-14T23:15:21.431Z,3.43
2019-02-14T23:17:49.827Z,3.39
2019-02-14T23:20:18.303Z,3.36
2019-02-14T23:22:46.719Z,3.33
2019-02-14T23:25:15.212Z,3.35
2019-02-14T23:27:43.601Z,3.34
2019-02-14T23:30:13.159Z,3.34
2019-02-14T23:32:41.561Z,3.34
2019-02-14T23:35:10.013Z,3.35
2019-02-14T23:37:38.542Z,3.36
2019-02-14T23:40:07.595Z,3.39
2019-02-14T23:42:36.012Z,3.43
2019-02-14T23:45:06.455Z,3.46
2019-02-14T23:47:34.857Z,3.48
2019-02-14T23:50:04.199Z,3.50
2019-02-14T23:52:32.821Z,3.49
2019-02-14T23:55:01.219Z,3.47
2019-02-14T23:57:29.617Z,3.43
2019-02-14T23:59:58.057Z,3.38
